Decoded Metar for KC62 ( in ) (IATA:) | Meteo·Mobile Aviation Weather
aviador You're here:

KC62 Decoded Metar

in
Report Time2018-08-21 10:15:00
UTC Time2018-08-21 10:38:19
Flight Rules vfr VFR
WindCalm
Visibility9999 m
Phenomena:N/A
Clouds:Scattered 039 Hf
Scattered 095 Hf
Broken 120 Hf
Expected CloudBase > 800 ft AGL from Temp-Dew spread
Ceiling12,000 ft
Temp19°C
Dew Point17°C (88% RH)
QNH1009 hPa
Raw Report
KC62 211015Z AUTO 00000KT 10SM SCT039 SCT095 BKN120 19/17 A2979
RMK AO2 T01920177=

Extra information for KC62:More info

Social comments